PST,Max TemperatureF,Mean TemperatureF,Min TemperatureF,Max Dew PointF,MeanDew PointF,Min DewpointF,Max Humidity, Mean Humidity, Min Humidity, Max Sea Level PressureIn, Mean Sea Level PressureIn, Min Sea Level PressureIn, Max VisibilityMiles, Mean VisibilityMiles, Min VisibilityMiles, Max Wind SpeedMPH, Mean Wind SpeedMPH, Max Gust SpeedMPH,PrecipitationIn, CloudCover, Events, WindDirDegrees
2012-12-1,65,59,52,51,49,47,83,70,56,30.16,30.10,30.05,10,10,10,25,14,31,0.00,2,,242
2012-12-2,63,58,53,50,49,46,83,73,62,30.08,30.05,30.01,10,10,10,30,16,38,0.00,2,,233
2012-12-3,67,53,39,51,44,25,89,67,45,30.21,30.14,30.08,10,10,10,23,12,30,0.00,1,,253
2012-12-4,64,48,31,36,29,23,72,54,35,30.34,30.27,30.22,10,10,10,7,2,8,0.00,0,,272
2012-12-5,75,53,30,41,31,23,69,48,26,30.23,30.11,30.02,10,10,9,30,10,36,0.00,0,,288
2012-12-6,71,61,50,44,42,35,71,51,31,30.04,29.99,29.92,10,10,6,24,12,29,0.00,0,,286
2012-12-7,68,53,37,42,36,27,85,56,26,30.10,30.04,29.99,10,10,10,15,4,18,0.00,0,,331
2012-12-8,69,47,25,30,21,-4,75,41,6,30.07,30.01,29.94,10,10,10,23,4,26,0.00,0,,330
2012-12-9,67,46,25,21,17,12,55,36,16,30.25,30.13,30.02,10,10,10,12,4,13,0.00,0,,353
2012-12-10,65,47,28,20,17,13,53,36,18,30.30,30.22,30.15,10,10,10,12,3,15,0.00,0,,305
2012-12-11,69,47,24,36,23,12,60,40,19,30.17,30.05,29.92,10,10,10,20,5,25,0.00,0,,261
2012-12-12,57,52,47,43,40,33,74,62,50,29.90,29.86,29.81,10,10,7,25,14,32,T,6,Rain,249
2012-12-13,51,45,39,41,36,31,76,68,59,29.82,29.78,29.72,10,10,10,18,9,22,0.08,7,Rain,287
2012-12-14,50,43,36,34,30,28,76,61,46,29.98,29.87,29.76,10,10,10,24,14,31,T,3,Rain,255
2012-12-15,51,43,34,30,25,16,76,51,26,30.07,30.03,29.96,10,10,10,25,14,30,0.00,1,,271
2012-12-16,56,46,36,41,37,28,82,69,55,30.13,30.09,30.05,10,10,10,25,14,31,0.00,1,,240
2012-12-17,59,53,46,43,42,40,82,68,53,30.13,30.05,29.95,10,10,10,28,17,35,0.00,1,,237
2012-12-18,50,43,36,43,30,15,80,60,40,30.08,29.91,29.84,10,10,10,37,18,44,0.00,4,,276
2012-12-19,48,34,19,20,10,1,63,39,14,30.44,30.29,30.08,10,10,10,28,7,32,0.00,0,,30
2012-12-20,48,31,13,8,4,0,55,36,17,30.44,30.36,30.27,10,10,10,13,5,17,0.00,0,,328
2012-12-21,51,31,10,11,8,0,61,41,20,30.28,30.21,30.14,10,10,10,8,3,18,0.00,0,,328
2012-12-22,59,40,20,41,23,7,83,51,18,30.20,30.15,30.06,10,10,10,29,9,33,0.00,1,,236
2012-12-23,54,47,40,41,39,36,89,74,59,30.17,30.12,30.05,10,10,10,29,15,37,0.00,1,,237
2012-12-24,55,44,33,44,37,26,82,64,46,30.17,30.06,30.00,10,10,10,38,18,45,T,2,Rain,269
2012-12-25,47,36,25,29,21,14,81,56,31,30.22,30.13,29.96,10,10,10,18,2,23,0.00,1,,271
2012-12-26,51,46,40,40,35,28,83,62,41,30.00,29.93,29.86,10,10,10,35,19,41,T,4,Rain,265
2012-12-27,51,38,25,32,27,20,76,58,39,30.19,30.05,29.96,10,10,10,28,14,32,0.00,1,,280
2012-12-28,49,33,16,22,17,12,80,56,31,30.28,30.20,30.12,10,10,10,9,2,10,0.00,1,,312
2012-12-29,44,33,21,29,19,11,69,54,39,30.13,30.07,30.01,10,10,10,9,3,12,T,5,,261
2012-12-30,47,34,20,34,26,15,88,71,53,30.14,30.03,29.94,10,10,5,16,5,20,0.03,3,Rain,296
2012-12-31,49,33,16,30,20,13,92,62,31,30.32,30.23,30.13,10,8,2,9,3,12,0.00,0,,112